Time;durP1;ratioP1;P1;durP2;ratioP2;P2;SDS_P1;SDS_P2;PMS_P1;PMS_P2;Temp;Humidity;BMP_temperature;BMP_pressure;BME280_temperature;BME280_humidity;BME280_pressure;Samples;Min_cycle;Max_cycle;Signal;HPM_P1;HPM_P2
2022/01/12 00:09:06;;;;;;;1.33;0.50;;;-4.30;91.70;;;;;;20885406;28;20041;-53
2022/01/12 00:19:09;;;;;;;1.80;0.52;;;-4.60;91.90;;;;;;20884774;28;20037;-50
2022/01/12 00:39:39;;;;;;;0.75;0.30;;;-4.10;85.10;;;;;;20868416;28;20435;-51
2022/01/12 00:49:41;;;;;;;1.60;0.40;;;-3.70;78.70;;;;;;20882973;28;20086;-50
2022/01/12 00:59:46;;;;;;;0.40;0.13;;;-2.80;74.70;;;;;;20866632;28;20091;-54
2022/01/12 01:10:00;;;;;;;0.30;0.10;;;-2.70;71.70;;;;;;20893807;28;20079;-54
2022/01/12 01:30:28;;;;;;;0.25;0.10;;;-2.20;61.20;;;;;;20901437;28;20045;-52
2022/01/12 01:40:34;;;;;;;0.15;0.10;;;-1.20;60.20;;;;;;20896687;28;20473;-51
2022/01/12 02:01:00;;;;;;;0.30;0.10;;;-0.90;55.90;;;;;;20895579;28;20033;-51
2022/01/12 02:11:08;;;;;;;0.57;0.20;;;-0.70;54.50;;;;;;20910967;28;20037;-51
2022/01/12 02:41:55;;;;;;;0.75;0.10;;;-1.20;59.50;;;;;;20826273;28;20079;-52
2022/01/12 03:12:28;;;;;;;0.55;0.10;;;-1.20;56.10;;;;;;20807533;28;20118;-52
2022/01/12 03:22:31;;;;;;;0.13;0.05;;;-1.00;56.80;;;;;;20814367;28;20045;-51
2022/01/12 03:32:42;;;;;;;0.82;0.10;;;-0.70;56.90;;;;;;20887940;28;20396;-51
2022/01/12 03:42:45;;;;;;;0.20;0.00;;;-0.70;55.90;;;;;;20650005;28;20398;-52
2022/01/12 03:52:47;;;;;;;0.13;0.00;;;-0.50;53.90;;;;;;20633376;28;20244;-50
2022/01/12 04:02:51;;;;;;;0.30;0.10;;;-0.40;53.70;;;;;;20632409;28;20313;-51
2022/01/12 04:12:55;;;;;;;0.10;0.08;;;-0.40;54.20;;;;;;20631406;28;20074;-50
2022/01/12 04:33:21;;;;;;;0.10;0.10;;;-0.60;54.70;;;;;;20869003;28;20048;-51
2022/01/12 04:43:25;;;;;;;0.60;0.20;;;-0.60;52.50;;;;;;20884076;28;20037;-51
2022/01/12 04:53:31;;;;;;;0.10;0.10;;;-0.80;52.60;;;;;;20891625;28;20106;-52
2022/01/12 05:14:01;;;;;;;0.40;0.10;;;-1.20;57.90;;;;;;20866795;28;20095;-56
2022/01/12 05:24:06;;;;;;;0.30;0.10;;;-1.30;57.70;;;;;;20881584;28;20048;-51
2022/01/12 05:34:09;;;;;;;0.40;0.17;;;-1.30;55.40;;;;;;20865878;28;20057;-52
2022/01/12 05:44:15;;;;;;;0.38;0.10;;;-1.10;54.30;;;;;;20881230;28;20086;-53
2022/01/12 05:54:18;;;;;;;0.30;0.10;;;-0.90;54.40;;;;;;20874554;28;20049;-52
2022/01/12 06:04:21;;;;;;;0.30;0.10;;;-1.00;55.10;;;;;;20895855;28;20098;-50
2022/01/12 06:14:27;;;;;;;0.32;0.05;;;-1.00;55.10;;;;;;20894756;28;20045;-51
2022/01/12 06:24:30;;;;;;;0.08;0.00;;;-1.20;56.40;;;;;;20877189;28;20037;-54
2022/01/12 06:34:36;;;;;;;0.43;0.20;;;-1.20;57.00;;;;;;20893297;28;20040;-50
2022/01/12 06:44:39;;;;;;;0.20;0.08;;;-1.30;56.20;;;;;;20892138;28;20099;-52
2022/01/12 06:54:42;;;;;;;0.38;0.00;;;-1.30;55.90;;;;;;20875313;28;20036;-51
2022/01/12 07:04:45;;;;;;;0.10;0.00;;;-1.20;54.90;;;;;;20889749;28;20037;-52
2022/01/12 07:14:49;;;;;;;0.47;0.20;;;-0.90;53.80;;;;;;20873489;28;20036;-50
2022/01/12 07:24:52;;;;;;;0.50;0.10;;;-0.70;53.60;;;;;;20888927;28;20053;-50
2022/01/12 07:34:54;;;;;;;0.17;0.10;;;-0.60;53.70;;;;;;20888001;28;20446;-53
2022/01/12 07:45:01;;;;;;;0.10;0.00;;;-0.50;51.80;;;;;;20888201;28;20094;-51
2022/01/12 07:55:05;;;;;;;0.65;0.10;;;-0.30;52.50;;;;;;20886962;28;20044;-50
2022/01/12 08:05:09;;;;;;;0.00;0.00;;;0.20;51.30;;;;;;20887136;28;20037;-54
2022/01/12 08:15:13;;;;;;;0.00;0.00;;;0.60;55.30;;;;;;20885389;28;20385;-49
2022/01/12 08:25:19;;;;;;;0.03;0.00;;;1.20;50.80;;;;;;20884912;28;20044;-50
2022/01/12 08:35:22;;;;;;;0.20;0.10;;;1.70;50.70;;;;;;20884002;28;20033;-51
2022/01/12 08:45:24;;;;;;;0.32;0.10;;;1.80;53.20;;;;;;20883303;28;20033;-50
2022/01/12 08:55:27;;;;;;;2.50;0.90;;;2.10;50.80;;;;;;20883790;28;20051;-50
2022/01/12 09:05:30;;;;;;;0.08;0.00;;;2.10;47.80;;;;;;20882410;28;20091;-50
2022/01/12 09:15:33;;;;;;;0.20;0.00;;;2.60;52.00;;;;;;20882588;28;20067;-52
2022/01/12 09:25:39;;;;;;;0.17;0.00;;;3.50;42.70;;;;;;20884203;28;20397;-52
2022/01/12 09:35:43;;;;;;;0.50;0.17;;;4.30;42.60;;;;;;20894751;28;20041;-51
2022/01/12 09:45:49;;;;;;;0.45;0.10;;;5.00;52.60;;;;;;20904341;28;20029;-51
2022/01/12 09:55:54;;;;;;;1.85;0.28;;;4.90;49.20;;;;;;20898165;28;20048;-51
2022/01/12 10:05:56;;;;;;;0.38;0.10;;;5.00;53.10;;;;;;20879790;28;20095;-52
2022/01/12 10:16:16;;;;;;;0.43;0.20;;;5.30;51.90;;;;;;20895722;28;20037;-51
2022/01/12 10:26:40;;;;;;;1.52;0.55;;;5.80;53.60;;;;;;20894484;28;20113;-51
2022/01/12 10:36:46;;;;;;;0.55;0.20;;;6.10;53.60;;;;;;20892161;28;20045;-56
2022/01/12 10:46:50;;;;;;;0.55;0.30;;;6.00;53.90;;;;;;20893038;28;20067;-54
2022/01/12 10:56:53;;;;;;;1.50;0.20;;;6.30;48.70;;;;;;20891917;28;20331;-51
2022/01/12 11:06:56;;;;;;;0.20;0.05;;;6.40;52.40;;;;;;20874923;28;20455;-52
2022/01/12 11:16:59;;;;;;;1.35;0.20;;;6.70;48.80;;;;;;20890940;28;20098;-52
2022/01/12 11:27:04;;;;;;;0.10;0.10;;;6.80;49.40;;;;;;20889489;28;20045;-53
2022/01/12 11:37:16;;;;;;;0.20;0.15;;;6.90;50.10;;;;;;20888962;28;20033;-51
2022/01/12 11:47:21;;;;;;;0.95;0.52;;;7.00;52.00;;;;;;20887657;28;20045;-53
2022/01/12 11:57:36;;;;;;;0.57;0.30;;;7.20;52.00;;;;;;20887440;28;20045;-55
2022/01/12 12:07:44;;;;;;;1.30;0.60;;;7.00;58.40;;;;;;20886061;28;20431;-53
2022/01/12 12:17:47;;;;;;;0.70;0.40;;;6.70;54.10;;;;;;20886584;28;20558;-52
2022/01/12 12:27:53;;;;;;;1.70;0.90;;;6.30;55.20;;;;;;20902148;28;20110;-57
2022/01/12 12:38:01;;;;;;;1.85;1.00;;;6.50;57.00;;;;;;20885432;28;20041;-51
2022/01/12 12:48:05;;;;;;;2.22;1.08;;;6.40;57.20;;;;;;20885644;28;20036;-51
2022/01/12 12:58:09;;;;;;;2.35;1.27;;;6.30;56.60;;;;;;20885717;28;20029;-53
2022/01/12 13:08:12;;;;;;;3.55;1.58;;;6.10;58.80;;;;;;20902296;28;20365;-53
2022/01/12 13:18:23;;;;;;;3.22;1.73;;;5.60;60.70;;;;;;20902630;28;20511;-53
2022/01/12 13:28:28;;;;;;;3.05;1.73;;;4.80;61.80;;;;;;20899409;28;20052;-53
2022/01/12 13:38:32;;;;;;;3.38;1.73;;;3.90;60.80;;;;;;20898642;28;20094;-52
2022/01/12 13:48:34;;;;;;;4.78;2.25;;;3.40;62.50;;;;;;20898194;28;20036;-52
2022/01/12 13:58:37;;;;;;;9.55;2.40;;;3.10;68.00;;;;;;20896753;28;20059;-53
2022/01/12 14:08:55;;;;;;;3.92;1.88;;;2.50;70.70;;;;;;20896181;28;20626;-51
2022/01/12 14:19:02;;;;;;;4.70;2.13;;;1.80;70.50;;;;;;20894921;28;20036;-53
2022/01/12 14:29:09;;;;;;;6.55;2.15;;;1.40;70.10;;;;;;20894977;28;20451;-56
2022/01/12 14:39:12;;;;;;;3.75;1.95;;;1.10;73.60;;;;;;20893828;28;20067;-52
2022/01/12 14:49:16;;;;;;;3.42;1.65;;;0.70;75.10;;;;;;20876429;28;20037;-55
2022/01/12 14:59:20;;;;;;;3.40;1.70;;;0.50;74.40;;;;;;20858816;28;20098;-57
2022/01/12 15:09:22;;;;;;;3.13;1.80;;;0.20;78.60;;;;;;20891610;28;20110;-52
2022/01/12 15:19:25;;;;;;;4.47;1.92;;;-0.20;80.30;;;;;;20890559;28;20071;-52
2022/01/12 15:29:28;;;;;;;2.35;1.30;;;-1.00;86.30;;;;;;20889004;28;20098;-52
2022/01/12 15:39:31;;;;;;;3.92;1.42;;;-1.60;89.90;;;;;;20889428;28;20082;-52
2022/01/12 15:49:34;;;;;;;1.45;0.73;;;-1.90;90.30;;;;;;20889251;28;20033;-52
2022/01/12 15:59:36;;;;;;;2.25;0.98;;;-2.00;84.80;;;;;;20887254;28;20114;-53
2022/01/12 16:09:39;;;;;;;2.35;0.85;;;-2.30;88.70;;;;;;20886675;28;20037;-53
2022/01/12 16:19:43;;;;;;;2.95;0.90;;;-2.50;88.10;;;;;;20886000;28;20538;-52
2022/01/12 16:29:46;;;;;;;1.23;0.50;;;-2.70;85.80;;;;;;20886497;28;20098;-51
2022/01/12 16:39:49;;;;;;;0.00;0.00;;;-2.70;85.40;;;;;;20901734;28;20114;-56
2022/01/12 16:49:53;;;;;;;1.63;0.60;;;-2.50;81.20;;;;;;20900836;28;20129;-53
2022/01/12 16:59:55;;;;;;;2.15;0.85;;;-1.90;77.10;;;;;;20900745;28;20090;-51
2022/01/12 17:09:58;;;;;;;3.05;1.17;;;-2.20;82.00;;;;;;20900222;28;20526;-50
2022/01/12 17:20:03;;;;;;;0.95;0.35;;;-2.50;85.10;;;;;;20899856;28;20071;-51
2022/01/12 17:30:09;;;;;;;0.60;0.30;;;-2.60;79.30;;;;;;20899042;28;20049;-50
2022/01/12 17:40:13;;;;;;;1.42;0.40;;;-2.40;77.50;;;;;;20898964;28;20078;-52
2022/01/12 17:50:18;;;;;;;0.10;0.10;;;-2.30;79.50;;;;;;20907044;28;20029;-52
2022/01/12 18:00:27;;;;;;;1.02;0.20;;;-2.20;81.00;;;;;;20913592;28;20036;-50
2022/01/12 18:10:30;;;;;;;0.52;0.20;;;-2.20;79.80;;;;;;20912532;28;20496;-51
2022/01/12 18:20:33;;;;;;;0.60;0.17;;;-2.10;76.80;;;;;;20911719;28;20090;-53
2022/01/12 18:30:37;;;;;;;0.20;0.00;;;-2.00;77.20;;;;;;20902233;28;20045;-50
2022/01/12 18:40:46;;;;;;;2.13;0.20;;;-1.80;78.80;;;;;;20893824;28;20033;-50
2022/01/12 18:50:51;;;;;;;0.63;0.20;;;-2.00;75.70;;;;;;20892774;28;20388;-51
2022/01/12 19:00:54;;;;;;;0.90;0.30;;;-2.00;77.80;;;;;;20890852;28;20562;-53
2022/01/12 19:10:58;;;;;;;0.80;0.20;;;-2.10;79.00;;;;;;20891070;28;20067;-53
2022/01/12 19:21:02;;;;;;;0.43;0.20;;;-2.20;78.10;;;;;;20890589;28;20106;-50
2022/01/12 19:31:05;;;;;;;1.30;0.30;;;-2.30;78.20;;;;;;20918669;28;20053;-51
2022/01/12 19:41:08;;;;;;;0.38;0.20;;;-2.40;75.80;;;;;;20905537;28;20094;-52
2022/01/12 19:51:34;;;;;;;1.10;0.40;;;-2.40;75.70;;;;;;20904829;28;20033;-53
2022/01/12 20:01:39;;;;;;;0.30;0.20;;;-2.40;79.00;;;;;;20920920;28;20083;-50
2022/01/12 20:11:42;;;;;;;0.45;0.20;;;-2.60;77.10;;;;;;20902750;28;20033;-50
2022/01/12 20:22:03;;;;;;;1.45;0.32;;;-2.60;78.60;;;;;;20903078;28;20037;-51
2022/01/12 20:32:13;;;;;;;0.30;0.10;;;-2.60;75.00;;;;;;20885088;28;20040;-51
2022/01/12 20:42:18;;;;;;;0.30;0.13;;;-2.50;76.60;;;;;;20884840;28;20099;-51
2022/01/12 20:52:23;;;;;;;0.30;0.10;;;-2.50;74.40;;;;;;20884247;28;20089;-55
2022/01/12 21:02:26;;;;;;;0.20;0.10;;;-2.30;73.40;;;;;;20883718;28;20041;-52
2022/01/12 21:12:29;;;;;;;0.60;0.20;;;-2.20;72.70;;;;;;20884484;28;20465;-50
2022/01/12 21:22:32;;;;;;;2.97;0.05;;;-2.20;72.70;;;;;;20870712;28;20049;-51
2022/01/12 21:32:35;;;;;;;0.25;0.05;;;-2.20;73.70;;;;;;20898870;28;20408;-51
2022/01/12 21:42:38;;;;;;;1.55;0.05;;;-2.00;67.60;;;;;;20898184;28;20086;-51
2022/01/12 21:52:41;;;;;;;0.65;0.20;;;-1.90;72.40;;;;;;20897118;28;20045;-52
2022/01/12 22:02:45;;;;;;;0.20;0.10;;;-1.90;70.80;;;;;;20896610;28;20493;-52
2022/01/12 22:12:47;;;;;;;0.25;0.20;;;-1.90;74.70;;;;;;20896047;28;20099;-52
2022/01/12 22:22:51;;;;;;;1.27;0.13;;;-1.90;68.60;;;;;;20895328;28;20095;-52
2022/01/12 22:32:56;;;;;;;1.48;0.17;;;-1.90;70.50;;;;;;20877955;28;20451;-51
2022/01/12 22:43:04;;;;;;;0.15;0.10;;;-2.10;72.50;;;;;;20893991;28;20091;-51
2022/01/12 22:53:09;;;;;;;0.57;0.20;;;-2.20;75.40;;;;;;20892921;28;20067;-52
2022/01/12 23:03:13;;;;;;;0.10;0.00;;;-2.30;76.30;;;;;;20892338;28;20021;-50
2022/01/12 23:13:16;;;;;;;0.50;0.10;;;-2.30;76.10;;;;;;20891236;28;20041;-51
2022/01/12 23:23:19;;;;;;;0.50;0.10;;;-2.40;77.60;;;;;;20890808;28;20102;-51
2022/01/12 23:43:36;;;;;;;0.08;0.00;;;-2.60;79.80;;;;;;20888245;28;20037;-55
